createdAt,value
2022-12-08T00:01:06.919Z,5.55
2022-12-08T00:03:35.205Z,4.00
2022-12-08T00:06:04.298Z,4.07
2022-12-08T00:08:32.100Z,4.30
2022-12-08T00:11:01.008Z,3.95
2022-12-08T00:13:29.240Z,4.00
2022-12-08T00:16:00.368Z,4.57
2022-12-08T00:18:28.496Z,4.43
2022-12-08T00:20:55.878Z,4.60
2022-12-08T00:23:23.679Z,3.88
2022-12-08T00:25:51.198Z,4.45
2022-12-08T00:28:20.428Z,4.20
2022-12-08T00:30:47.876Z,4.68
2022-12-08T00:33:15.836Z,3.88
2022-12-08T00:35:43.552Z,4.60
2022-12-08T00:38:11.495Z,4.13
2022-12-08T00:40:43.367Z,4.57
2022-12-08T00:43:11.195Z,5.25
2022-12-08T00:45:40.103Z,4.38
2022-12-08T00:48:08.040Z,4.13
2022-12-08T00:50:35.479Z,4.10
2022-12-08T00:53:03.670Z,4.45
2022-12-08T00:55:30.995Z,4.15
2022-12-08T00:57:58.727Z,5.35
2022-12-08T01:00:26.186Z,3.83
2022-12-08T01:02:55.543Z,5.05
2022-12-08T01:05:22.950Z,4.97
2022-12-08T01:07:50.830Z,5.28
2022-12-08T01:10:18.369Z,4.35
2022-12-08T01:12:46.108Z,4.70
2022-12-08T01:15:13.437Z,4.50
2022-12-08T01:17:41.091Z,5.30
2022-12-08T01:20:10.352Z,5.18
2022-12-08T01:22:38.089Z,5.38
2022-12-08T01:25:06.023Z,5.15
2022-12-08T01:27:33.804Z,5.40
2022-12-08T01:30:01.198Z,4.97
2022-12-08T01:32:29.240Z,5.13
2022-12-08T01:34:56.643Z,5.93
2022-12-08T01:37:26.256Z,5.80
2022-12-08T01:39:53.511Z,5.95
2022-12-08T01:42:22.874Z,4.82
2022-12-08T01:44:55.633Z,3.92
2022-12-08T01:47:27.564Z,5.78
2022-12-08T01:49:55.357Z,5.53
2022-12-08T01:52:32.286Z,5.95
2022-12-08T01:55:04.274Z,4.70
2022-12-08T01:57:36.781Z,6.00
2022-12-08T02:00:21.530Z,4.05
2022-12-08T02:02:57.414Z,4.82
2022-12-08T02:05:28.957Z,5.15
2022-12-08T02:08:00.464Z,5.72
2022-12-08T02:10:30.779Z,4.75
2022-12-08T02:13:00.335Z,4.90
2022-12-08T02:15:35.561Z,5.00
2022-12-08T02:18:16.944Z,5.43
2022-12-08T02:20:56.557Z,5.75
2022-12-08T02:23:35.227Z,5.40
2022-12-08T02:26:27.270Z,5.60
2022-12-08T02:29:29.664Z,6.28
2022-12-08T02:32:18.741Z,5.53
2022-12-08T02:34:55.795Z,5.57
2022-12-08T02:37:28.329Z,7.03
2022-12-08T02:42:34.473Z,5.45
2022-12-08T02:45:09.696Z,5.70
2022-12-08T02:47:38.381Z,5.82
2022-12-08T02:50:09.456Z,5.88
2022-12-08T02:52:42.187Z,5.65
2022-12-08T02:55:20.071Z,5.90
2022-12-08T02:58:21.516Z,6.10
2022-12-08T03:01:07.448Z,5.32
2022-12-08T03:03:45.618Z,5.50
2022-12-08T03:06:25.356Z,6.00
2022-12-08T03:08:58.338Z,5.28
2022-12-08T03:11:33.584Z,5.47
2022-12-08T03:14:06.685Z,6.32
2022-12-08T03:16:38.770Z,5.68
2022-12-08T03:19:12.377Z,6.43
2022-12-08T03:21:43.812Z,6.70
2022-12-08T03:24:13.091Z,5.75
2022-12-08T03:26:45.922Z,5.80
2022-12-08T03:29:13.863Z,5.82
2022-12-08T03:31:49.529Z,6.22
2022-12-08T03:34:18.247Z,6.00
2022-12-08T03:36:47.728Z,5.68
2022-12-08T03:39:15.417Z,5.13
2022-12-08T03:41:43.255Z,5.60
2022-12-08T03:44:10.835Z,5.55
2022-12-08T03:46:40.061Z,5.82
2022-12-08T03:49:07.881Z,5.68
2022-12-08T03:51:36.044Z,5.70
2022-12-08T03:54:05.190Z,6.30
2022-12-08T03:56:36.592Z,5.97
2022-12-08T03:59:05.056Z,6.72
2022-12-08T04:01:33.607Z,5.97
2022-12-08T04:04:01.055Z,6.93
2022-12-08T04:06:29.133Z,6.88
2022-12-08T04:08:56.931Z,7.38
2022-12-08T04:11:26.195Z,6.65
2022-12-08T04:13:53.882Z,6.32
2022-12-08T04:16:24.135Z,6.72
2022-12-08T04:18:51.643Z,6.45
2022-12-08T04:21:20.186Z,6.40
2022-12-08T04:23:47.852Z,6.72
2022-12-08T04:26:15.816Z,6.32
2022-12-08T04:28:45.339Z,6.85
2022-12-08T04:31:13.245Z,7.32
2022-12-08T04:33:41.025Z,7.40
2022-12-08T04:36:09.592Z,6.35
2022-12-08T04:38:36.935Z,6.65
2022-12-08T04:41:04.900Z,6.63
2022-12-08T04:43:32.374Z,6.97
2022-12-08T04:46:01.621Z,6.55
2022-12-08T04:48:28.992Z,6.57
2022-12-08T04:50:57.084Z,6.50
2022-12-08T04:53:24.500Z,6.30
2022-12-08T04:55:52.223Z,6.60
2022-12-08T04:58:20.441Z,7.00
2022-12-08T05:00:48.896Z,6.90
2022-12-08T05:03:17.652Z,7.60
2022-12-08T05:05:45.947Z,6.20
2022-12-08T05:08:13.445Z,5.97
2022-12-08T05:10:41.248Z,6.25
2022-12-08T05:13:08.828Z,6.47
2022-12-08T05:15:36.853Z,5.78
2022-12-08T05:18:05.959Z,5.57
2022-12-08T05:20:35.711Z,5.53
2022-12-08T05:23:03.595Z,5.88
2022-12-08T05:25:31.759Z,5.65
2022-12-08T05:28:24.708Z,5.95
2022-12-08T05:30:47.055Z,6.70
2022-12-08T05:33:14.547Z,4.68
2022-12-08T05:35:43.965Z,6.25
2022-12-08T05:38:11.742Z,5.88
2022-12-08T05:40:40.427Z,5.55
2022-12-08T05:43:10.548Z,6.07
2022-12-08T05:45:38.671Z,6.18
2022-12-08T05:48:06.402Z,6.63
2022-12-08T05:50:34.052Z,5.70
2022-12-08T05:53:02.754Z,5.47
2022-12-08T05:55:30.573Z,5.80
2022-12-08T05:58:04.656Z,6.65
2022-12-08T06:00:35.595Z,6.57
2022-12-08T06:03:03.554Z,7.30
2022-12-08T06:05:33.004Z,6.45
2022-12-08T06:08:02.352Z,7.03
2022-12-08T06:10:30.479Z,4.00
2022-12-08T06:12:58.092Z,5.15
2022-12-08T06:15:25.888Z,5.85
2022-12-08T06:17:53.228Z,5.65
2022-12-08T06:20:21.549Z,4.75
2022-12-08T06:22:48.888Z,6.88
2022-12-08T06:25:18.238Z,6.30
2022-12-08T06:27:45.614Z,7.10
2022-12-08T06:30:14.149Z,7.15
2022-12-08T06:32:41.484Z,7.78
2022-12-08T06:35:10.190Z,8.40
2022-12-08T06:37:37.716Z,6.82
2022-12-08T06:40:07.171Z,6.70
2022-12-08T06:42:36.234Z,7.45
2022-12-08T06:45:04.697Z,6.95
2022-12-08T06:47:32.005Z,5.47
2022-12-08T06:50:03.214Z,6.72
2022-12-08T06:52:31.142Z,6.75
2022-12-08T06:54:59.267Z,6.63
2022-12-08T06:57:26.590Z,7.07
2022-12-08T06:59:55.740Z,6.97
2022-12-08T07:02:23.137Z,7.10
2022-12-08T07:04:51.850Z,7.07
2022-12-08T07:07:22.264Z,9.00
2022-12-08T07:09:50.099Z,8.98
2022-12-08T07:12:17.508Z,7.85
2022-12-08T07:14:45.291Z,9.68
2022-12-08T07:17:14.365Z,7.97
2022-12-08T07:19:42.257Z,6.90
2022-12-08T07:22:09.450Z,6.85
2022-12-08T07:24:37.388Z,6.45
2022-12-08T07:27:06.579Z,6.57
2022-12-08T07:29:34.428Z,6.13
2022-12-08T07:32:01.830Z,6.35
2022-12-08T07:34:31.101Z,6.80
2022-12-08T07:36:58.427Z,6.95
2022-12-08T07:39:26.676Z,7.03
2022-12-08T07:41:54.304Z,5.88
2022-12-08T07:44:22.191Z,7.30
2022-12-08T07:46:49.509Z,7.80
2022-12-08T07:49:17.143Z,10.00
2022-12-08T07:51:46.206Z,11.48
2022-12-08T07:54:13.953Z,11.20
2022-12-08T07:56:41.337Z,10.25
2022-12-08T07:59:09.021Z,10.20
2022-12-08T08:01:36.657Z,8.90
2022-12-08T08:04:06.156Z,7.07
2022-12-08T08:06:34.693Z,7.63
2022-12-08T08:09:04.459Z,6.32
2022-12-08T08:11:32.114Z,5.43
2022-12-08T08:14:00.148Z,6.57
2022-12-08T08:16:28.520Z,5.65
2022-12-08T08:18:58.779Z,5.88
2022-12-08T08:21:45.143Z,6.70
2022-12-08T08:24:15.454Z,6.43
2022-12-08T08:26:42.943Z,8.45
2022-12-08T08:29:10.676Z,10.00
2022-12-08T08:31:38.331Z,7.97
2022-12-08T08:34:06.346Z,7.85
2022-12-08T08:36:34.501Z,8.23
2022-12-08T08:39:02.652Z,5.18
2022-12-08T08:41:31.869Z,5.30
2022-12-08T08:43:59.790Z,4.68
2022-12-08T08:46:27.303Z,6.22
2022-12-08T08:48:56.452Z,7.10
2022-12-08T08:51:24.469Z,6.80
2022-12-08T08:53:52.237Z,5.78
2022-12-08T08:56:20.119Z,6.05
2022-12-08T08:58:50.292Z,5.45
2022-12-08T09:01:19.149Z,5.40
2022-12-08T09:03:47.588Z,4.93
2022-12-08T09:06:15.483Z,4.45
2022-12-08T09:08:43.962Z,4.32
2022-12-08T09:11:11.764Z,5.63
2022-12-08T09:13:39.942Z,4.18
2022-12-08T09:16:11.138Z,4.38
2022-12-08T09:18:38.912Z,5.65
2022-12-08T09:21:08.414Z,6.28
2022-12-08T09:23:37.370Z,5.75
2022-12-08T09:26:05.803Z,6.03
2022-12-08T09:28:33.832Z,5.90
2022-12-08T09:31:01.535Z,5.10
2022-12-08T09:33:31.300Z,5.82
2022-12-08T09:36:02.651Z,4.65
2022-12-08T09:38:30.808Z,5.97
2022-12-08T09:40:59.986Z,5.32
2022-12-08T09:43:53.551Z,5.43
2022-12-08T09:46:21.533Z,5.35
2022-12-08T09:48:54.043Z,5.35
2022-12-08T09:51:23.515Z,6.03
2022-12-08T09:53:56.767Z,5.75
2022-12-08T09:58:58.500Z,5.43
2022-12-08T10:01:29.054Z,6.20
2022-12-08T10:03:59.001Z,4.90
2022-12-08T10:06:31.803Z,4.65
2022-12-08T10:09:12.606Z,5.28
2022-12-08T10:11:50.413Z,5.15
2022-12-08T10:14:28.653Z,4.30
2022-12-08T10:17:01.283Z,5.32
2022-12-08T10:19:31.525Z,4.40
2022-12-08T10:21:59.028Z,4.75
2022-12-08T10:24:34.549Z,4.00
2022-12-08T10:27:02.517Z,4.38
2022-12-08T10:29:30.433Z,4.72
2022-12-08T10:31:59.814Z,5.13
2022-12-08T10:34:27.601Z,3.95
2022-12-08T10:36:58.419Z,3.90
2022-12-08T10:39:40.258Z,4.88
2022-12-08T10:42:16.837Z,4.10
2022-12-08T10:44:54.574Z,4.47
2022-12-08T10:47:24.697Z,4.45
2022-12-08T10:50:08.523Z,6.07
2022-12-08T10:52:40.002Z,5.93
2022-12-08T10:55:15.145Z,5.38
2022-12-08T10:57:42.549Z,4.90
2022-12-08T11:00:14.399Z,5.25
2022-12-08T11:02:54.870Z,4.60
2022-12-08T11:05:26.943Z,4.82
2022-12-08T11:07:56.652Z,4.78
2022-12-08T11:10:34.158Z,5.05
2022-12-08T11:13:04.500Z,5.10
2022-12-08T11:15:38.236Z,5.57
2022-12-08T11:18:10.124Z,4.65
2022-12-08T11:20:41.581Z,4.40
2022-12-08T11:23:24.455Z,4.38
2022-12-08T11:25:56.243Z,4.85
2022-12-08T11:28:24.855Z,5.13
2022-12-08T11:30:57.451Z,5.45
2022-12-08T11:33:28.216Z,5.55
2022-12-08T11:36:01.081Z,4.68
2022-12-08T11:38:31.925Z,4.68
2022-12-08T11:41:07.509Z,5.55
2022-12-08T11:43:44.423Z,4.97
2022-12-08T11:46:16.969Z,6.15
2022-12-08T11:48:50.567Z,4.72
2022-12-08T11:51:28.908Z,6.78
2022-12-08T11:54:13.650Z,6.10
2022-12-08T11:56:44.920Z,5.80
2022-12-08T11:59:19.726Z,6.32
2022-12-08T12:01:47.640Z,6.13
2022-12-08T12:04:23.399Z,6.63
2022-12-08T12:07:25.876Z,7.82
2022-12-08T12:10:17.730Z,7.15
2022-12-08T12:12:58.135Z,6.82
2022-12-08T12:16:12.503Z,6.60
2022-12-08T12:18:43.888Z,6.28
2022-12-08T12:21:15.482Z,6.35
2022-12-08T12:23:49.213Z,6.90
2022-12-08T12:26:23.758Z,6.03
2022-12-08T12:28:55.641Z,6.25
2022-12-08T12:31:27.351Z,5.53
2022-12-08T12:34:06.296Z,6.68
2022-12-08T12:36:46.737Z,6.63
2022-12-08T12:39:18.511Z,6.03
2022-12-08T12:41:51.215Z,5.72
2022-12-08T12:44:41.905Z,5.57
2022-12-08T12:47:46.883Z,6.50
2022-12-08T12:50:42.024Z,5.78
2022-12-08T12:53:42.273Z,5.32
2022-12-08T12:56:10.448Z,5.80
2022-12-08T12:58:40.725Z,5.45
2022-12-08T13:01:47.648Z,6.13
2022-12-08T13:04:15.147Z,3.95
2022-12-08T13:06:46.999Z,4.80
2022-12-08T13:09:23.473Z,5.10
2022-12-08T13:11:55.436Z,4.82
2022-12-08T13:14:47.151Z,5.63
2022-12-08T13:17:21.255Z,4.30
2022-12-08T13:19:51.907Z,4.97
2022-12-08T13:23:05.320Z,4.60
2022-12-08T13:25:50.950Z,5.18
2022-12-08T13:28:28.955Z,6.13
2022-12-08T13:31:02.456Z,5.30
2022-12-08T13:33:33.665Z,5.38
2022-12-08T13:36:17.255Z,5.10
2022-12-08T13:38:47.421Z,5.45
2022-12-08T13:41:20.601Z,5.43
2022-12-08T13:44:50.466Z,6.43
2022-12-08T13:56:51.606Z,5.85
2022-12-08T13:58:20.924Z,5.40
2022-12-08T14:03:26.355Z,5.03
2022-12-08T14:09:02.385Z,5.10
2022-12-08T14:11:34.931Z,5.30
2022-12-08T14:14:06.043Z,5.50
2022-12-08T14:16:38.705Z,5.65
2022-12-08T14:19:16.895Z,5.88
2022-12-08T14:21:51.903Z,5.63
2022-12-08T14:24:19.484Z,5.63
2022-12-08T14:26:53.265Z,6.07
2022-12-08T14:29:40.837Z,7.88
2022-12-08T14:32:21.645Z,7.60
2022-12-08T14:34:54.164Z,6.95
2022-12-08T14:37:23.197Z,6.97
2022-12-08T14:39:52.082Z,6.78
2022-12-08T14:42:23.844Z,5.78
2022-12-08T14:45:04.908Z,6.00
2022-12-08T14:47:34.162Z,6.90
2022-12-08T14:50:05.494Z,5.90
2022-12-08T14:52:33.496Z,6.30
2022-12-08T14:55:07.594Z,5.95
2022-12-08T14:57:35.633Z,6.45
2022-12-08T15:00:10.982Z,6.63
2022-12-08T15:02:45.160Z,7.10
2022-12-08T15:05:18.070Z,7.35
2022-12-08T15:07:50.000Z,6.00
2022-12-08T15:10:28.151Z,6.43
2022-12-08T15:13:02.976Z,6.70
2022-12-08T15:15:32.227Z,6.68
2022-12-08T15:18:12.226Z,6.78
2022-12-08T15:20:46.322Z,7.40
2022-12-08T15:23:33.004Z,8.32
2022-12-08T15:26:00.511Z,9.48
2022-12-08T15:28:30.260Z,7.70
2022-12-08T15:30:58.920Z,6.95
2022-12-08T15:33:27.065Z,7.88
2022-12-08T15:35:55.721Z,7.90
2022-12-08T15:38:25.864Z,9.35
2022-12-08T15:40:54.204Z,9.65
2022-12-08T15:43:23.258Z,9.65
2022-12-08T15:45:59.587Z,8.82
2022-12-08T15:48:30.003Z,10.23
2022-12-08T15:50:59.073Z,10.57
2022-12-08T15:53:27.328Z,9.35
2022-12-08T15:58:59.003Z,8.70
2022-12-08T16:01:27.153Z,8.27
2022-12-08T16:09:37.918Z,11.27
2022-12-08T16:12:09.518Z,11.85
2022-12-08T16:17:26.850Z,12.27
2022-12-08T16:19:55.031Z,12.77
2022-12-08T16:25:20.377Z,11.98
2022-12-08T16:28:01.495Z,10.80
2022-12-08T16:30:33.909Z,13.38
2022-12-08T16:33:01.612Z,13.13
2022-12-08T16:35:32.844Z,13.25
2022-12-08T16:38:01.820Z,11.05
2022-12-08T16:40:29.751Z,11.77
2022-12-08T16:42:57.131Z,15.38
2022-12-08T16:45:26.858Z,14.25
2022-12-08T16:47:56.376Z,13.43
2022-12-08T16:50:26.027Z,14.80
2022-12-08T16:52:57.563Z,14.70
2022-12-08T16:55:27.089Z,14.35
2022-12-08T16:57:54.943Z,11.70
2022-12-08T17:00:24.593Z,10.35
2022-12-08T17:02:52.666Z,11.90
2022-12-08T17:05:22.203Z,11.68
2022-12-08T17:07:51.548Z,9.88
2022-12-08T17:10:22.285Z,11.43
2022-12-08T17:12:52.068Z,12.02
2022-12-08T17:15:23.922Z,11.13
2022-12-08T17:17:52.140Z,10.80
2022-12-08T17:20:22.158Z,11.52
2022-12-08T17:22:49.860Z,11.00
2022-12-08T17:25:17.792Z,12.57
2022-12-08T17:27:45.181Z,11.73
2022-12-08T17:30:15.226Z,12.40
2022-12-08T17:32:43.060Z,13.15
2022-12-08T17:35:11.308Z,11.38
2022-12-08T17:37:38.680Z,11.32
2022-12-08T17:40:08.070Z,12.27
2022-12-08T17:42:35.740Z,11.80
2022-12-08T17:45:04.789Z,12.48
2022-12-08T17:47:34.040Z,11.65
2022-12-08T17:50:02.453Z,11.73
2022-12-08T17:52:30.009Z,11.35
2022-12-08T17:54:57.798Z,11.55
2022-12-08T17:57:25.154Z,10.77
2022-12-08T17:59:55.959Z,11.50
2022-12-08T18:02:23.512Z,11.30
2022-12-08T18:04:52.730Z,10.55
2022-12-08T18:07:20.125Z,10.85
2022-12-08T18:09:47.734Z,10.45
2022-12-08T18:12:19.255Z,10.90
2022-12-08T18:14:50.084Z,9.68
2022-12-08T18:17:17.610Z,11.00
2022-12-08T18:19:45.561Z,12.00
2022-12-08T18:22:14.403Z,11.95
2022-12-08T18:24:43.555Z,10.68
2022-12-08T18:27:11.596Z,11.77
2022-12-08T18:29:40.307Z,10.63
2022-12-08T18:32:08.102Z,10.13
2022-12-08T18:34:36.337Z,11.50
2022-12-08T18:37:03.986Z,10.55
2022-12-08T18:39:35.131Z,10.07
2022-12-08T18:42:02.768Z,11.40
2022-12-08T18:44:30.513Z,11.07
2022-12-08T18:46:57.920Z,10.63
2022-12-08T18:49:25.871Z,10.07
2022-12-08T18:51:53.249Z,9.57
2022-12-08T18:54:27.682Z,11.18
2022-12-08T18:57:06.535Z,12.80
2022-12-08T18:59:34.422Z,13.40
2022-12-08T19:02:01.921Z,12.23
2022-12-08T19:04:30.276Z,12.80
2022-12-08T19:06:59.385Z,14.68
2022-12-08T19:09:27.251Z,14.75
2022-12-08T19:11:54.735Z,13.10
2022-12-08T19:14:28.296Z,16.08
2022-12-08T19:16:56.572Z,13.55
2022-12-08T19:19:24.485Z,12.80
2022-12-08T19:21:52.231Z,14.45
2022-12-08T19:24:19.968Z,13.25
2022-12-08T19:26:47.642Z,11.75
2022-12-08T19:29:15.949Z,9.20
2022-12-08T19:31:48.110Z,12.93
2022-12-08T19:34:16.386Z,11.00
2022-12-08T19:36:44.111Z,12.57
2022-12-08T19:39:15.868Z,13.85
2022-12-08T19:41:43.447Z,13.63
2022-12-08T19:44:18.571Z,12.20
2022-12-08T19:46:47.512Z,11.18
2022-12-08T19:49:16.435Z,10.23
2022-12-08T19:51:43.792Z,7.38
2022-12-08T19:54:12.029Z,11.02
2022-12-08T19:56:39.570Z,13.10
2022-12-08T19:59:07.805Z,12.15
2022-12-08T20:01:35.201Z,12.27
2022-12-08T20:04:05.130Z,10.35
2022-12-08T20:06:32.602Z,10.57
2022-12-08T20:09:00.717Z,11.40
2022-12-08T20:11:28.377Z,12.35
2022-12-08T20:13:56.405Z,11.45
2022-12-08T20:16:26.057Z,12.02
2022-12-08T20:18:53.983Z,10.43
2022-12-08T20:21:23.060Z,11.25
2022-12-08T20:23:50.977Z,10.90
2022-12-08T20:26:20.126Z,12.50
2022-12-08T20:28:48.189Z,11.43
2022-12-08T20:31:19.002Z,12.32
2022-12-08T20:33:47.342Z,10.68
2022-12-08T20:36:16.572Z,11.93
2022-12-08T20:38:46.083Z,12.00
2022-12-08T20:41:13.571Z,10.52
2022-12-08T20:43:41.720Z,11.27
2022-12-08T20:46:10.826Z,10.43
2022-12-08T20:48:38.976Z,12.13
2022-12-08T20:51:07.082Z,13.30
2022-12-08T20:53:35.271Z,15.38
2022-12-08T20:56:04.351Z,14.50
2022-12-08T20:58:32.264Z,15.00
2022-12-08T21:00:59.932Z,15.57
2022-12-08T21:03:27.984Z,14.95
2022-12-08T21:05:55.558Z,15.15
2022-12-08T21:08:23.551Z,16.40
2022-12-08T21:10:54.437Z,13.30
2022-12-08T21:13:24.178Z,13.20
2022-12-08T21:15:51.660Z,13.45
2022-12-08T21:18:20.508Z,12.00
2022-12-08T21:20:48.777Z,13.00
2022-12-08T21:23:17.154Z,13.90
2022-12-08T21:25:46.054Z,11.40
2022-12-08T21:28:13.899Z,12.20
2022-12-08T21:30:43.164Z,13.00
2022-12-08T21:33:11.217Z,12.15
2022-12-08T21:35:38.817Z,17.17
2022-12-08T21:38:07.387Z,17.38
2022-12-08T21:40:35.171Z,14.45
2022-12-08T21:43:03.413Z,15.32
2022-12-08T21:45:30.798Z,17.05
2022-12-08T21:48:02.245Z,15.63
2022-12-08T21:50:33.365Z,14.18
2022-12-08T21:53:01.757Z,17.30
2022-12-08T21:55:29.329Z,14.90
2022-12-08T21:57:57.202Z,13.27
2022-12-08T22:00:25.263Z,11.52
2022-12-08T22:02:53.378Z,12.32
2022-12-08T22:05:22.818Z,12.63
2022-12-08T22:07:50.880Z,11.60
2022-12-08T22:10:18.786Z,13.15
2022-12-08T22:12:47.337Z,12.48
2022-12-08T22:15:15.163Z,13.82
2022-12-08T22:17:43.947Z,13.43
2022-12-08T22:20:13.800Z,12.45
2022-12-08T22:22:43.861Z,14.13
2022-12-08T22:25:11.383Z,12.65
2022-12-08T22:27:40.031Z,13.25
2022-12-08T22:30:09.674Z,12.45
2022-12-08T22:32:38.552Z,14.07
2022-12-08T22:35:06.679Z,13.73
2022-12-08T22:37:34.668Z,13.63
2022-12-08T22:40:04.519Z,14.35
2022-12-08T22:42:32.912Z,15.80
2022-12-08T22:45:00.572Z,14.95
2022-12-08T22:47:28.947Z,14.25
2022-12-08T22:49:56.437Z,13.70
2022-12-08T22:52:24.711Z,15.57
2022-12-08T22:54:52.099Z,12.45
2022-12-08T22:57:21.264Z,14.93
2022-12-08T22:59:48.981Z,13.63
2022-12-08T23:02:16.855Z,12.23
2022-12-08T23:04:44.660Z,13.35
2022-12-08T23:07:13.053Z,12.60
2022-12-08T23:09:40.393Z,13.88
2022-12-08T23:12:08.336Z,12.45
2022-12-08T23:14:37.290Z,12.27
2022-12-08T23:17:05.620Z,12.25
2022-12-08T23:19:35.520Z,11.50
2022-12-08T23:22:21.174Z,13.10
2022-12-08T23:25:09.051Z,13.30
2022-12-08T23:27:54.463Z,14.77
2022-12-08T23:30:24.131Z,14.05
2022-12-08T23:32:55.077Z,14.75
2022-12-08T23:35:23.679Z,14.05
2022-12-08T23:37:51.271Z,13.65
2022-12-08T23:40:19.435Z,12.15
2022-12-08T23:42:46.854Z,12.00
2022-12-08T23:45:14.543Z,10.75
2022-12-08T23:47:43.320Z,11.82
2022-12-08T23:50:11.701Z,13.10
2022-12-08T23:52:40.091Z,13.07
2022-12-08T23:55:08.892Z,11.07
2022-12-08T23:57:36.787Z,11.75
